sensor_id;sensor_type;location;lat;lon;timestamp;P1;P2;P0
79537;PMS5003;68989;52.032;5.152;2023-08-24T00:01:35;4;4;
79537;PMS5003;68989;52.032;5.152;2023-08-24T00:04:02;5;5;
79537;PMS5003;68989;52.032;5.152;2023-08-24T00:06:30;4;4;
79537;PMS5003;68989;52.032;5.152;2023-08-24T00:08:57;6;6;
79537;PMS5003;68989;52.032;5.152;2023-08-24T00:11:25;7;6;
79537;PMS5003;68989;52.032;5.152;2023-08-24T00:13:52;4;4;
79537;PMS5003;68989;52.032;5.152;2023-08-24T00:16:19;7;5;
79537;PMS5003;68989;52.032;5.152;2023-08-24T00:18:47;4;4;
79537;PMS5003;68989;52.032;5.152;2023-08-24T00:21:15;5;5;
79537;PMS5003;68989;52.032;5.152;2023-08-24T00:23:42;6;6;
79537;PMS5003;68989;52.032;5.152;2023-08-24T00:26:09;6;6;
79537;PMS5003;68989;52.032;5.152;2023-08-24T00:28:36;6;6;
79537;PMS5003;68989;52.032;5.152;2023-08-24T00:31:03;5;5;
79537;PMS5003;68989;52.032;5.152;2023-08-24T00:33:30;6;6;
79537;PMS5003;68989;52.032;5.152;2023-08-24T00:35:59;3;3;
79537;PMS5003;68989;52.032;5.152;2023-08-24T00:38:26;5;5;
79537;PMS5003;68989;52.032;5.152;2023-08-24T00:40:52;3;3;
79537;PMS5003;68989;52.032;5.152;2023-08-24T00:43:19;6;4;
79537;PMS5003;68989;52.032;5.152;2023-08-24T00:45:47;4;4;
79537;PMS5003;68989;52.032;5.152;2023-08-24T00:48:13;5;5;
79537;PMS5003;68989;52.032;5.152;2023-08-24T00:50:41;6;6;
79537;PMS5003;68989;52.032;5.152;2023-08-24T00:53:08;5;5;
79537;PMS5003;68989;52.032;5.152;2023-08-24T00:55:34;7;7;
79537;PMS5003;68989;52.032;5.152;2023-08-24T00:58:02;7;7;
79537;PMS5003;68989;52.032;5.152;2023-08-24T01:01:49;6;6;
79537;PMS5003;68989;52.032;5.152;2023-08-24T01:10:27;6;6;
79537;PMS5003;68989;52.032;5.152;2023-08-24T01:13:29;6;6;
79537;PMS5003;68989;52.032;5.152;2023-08-24T01:16:41;6;6;
79537;PMS5003;68989;52.032;5.152;2023-08-24T01:17:29;6;6;
79537;PMS5003;68989;52.032;5.152;2023-08-24T01:18:20;5;5;
79537;PMS5003;68989;52.032;5.152;2023-08-24T01:19:07;5;5;
79537;PMS5003;68989;52.032;5.152;2023-08-24T01:36:36;5;5;
79537;PMS5003;68989;52.032;5.152;2023-08-24T01:38:03;5;5;
79537;PMS5003;68989;52.032;5.152;2023-08-24T01:41:44;5;5;
79537;PMS5003;68989;52.032;5.152;2023-08-24T01:43:04;6;5;
79537;PMS5003;68989;52.032;5.152;2023-08-24T01:49:26;5;5;
79537;PMS5003;68989;52.032;5.152;2023-08-24T01:52:36;5;5;
79537;PMS5003;68989;52.032;5.152;2023-08-24T01:55:21;5;5;
79537;PMS5003;68989;52.032;5.152;2023-08-24T02:23:19;6;5;
79537;PMS5003;68989;52.032;5.152;2023-08-24T02:25:45;5;5;
79537;PMS5003;68989;52.032;5.152;2023-08-24T02:28:11;4;4;
79537;PMS5003;68989;52.032;5.152;2023-08-24T02:30:37;6;6;
79537;PMS5003;68989;52.032;5.152;2023-08-24T02:33:03;6;6;
79537;PMS5003;68989;52.032;5.152;2023-08-24T02:35:31;7;7;
79537;PMS5003;68989;52.032;5.152;2023-08-24T02:37:57;7;7;
79537;PMS5003;68989;52.032;5.152;2023-08-24T02:40:24;10;10;
79537;PMS5003;68989;52.032;5.152;2023-08-24T02:42:51;8;8;
79537;PMS5003;68989;52.032;5.152;2023-08-24T02:45:18;9;7;
79537;PMS5003;68989;52.032;5.152;2023-08-24T02:47:45;6;6;
79537;PMS5003;68989;52.032;5.152;2023-08-24T02:50:12;8;8;
79537;PMS5003;68989;52.032;5.152;2023-08-24T02:52:38;8;8;
79537;PMS5003;68989;52.032;5.152;2023-08-24T02:55:07;13;10;
79537;PMS5003;68989;52.032;5.152;2023-08-24T02:57:35;6;6;
79537;PMS5003;68989;52.032;5.152;2023-08-24T03:00:02;8;8;
79537;PMS5003;68989;52.032;5.152;2023-08-24T03:02:30;10;9;
79537;PMS5003;68989;52.032;5.152;2023-08-24T03:04:57;10;10;
79537;PMS5003;68989;52.032;5.152;2023-08-24T03:07:24;8;8;
79537;PMS5003;68989;52.032;5.152;2023-08-24T03:09:51;10;8;
79537;PMS5003;68989;52.032;5.152;2023-08-24T03:12:18;7;7;
79537;PMS5003;68989;52.032;5.152;2023-08-24T03:14:45;7;7;
79537;PMS5003;68989;52.032;5.152;2023-08-24T03:17:12;10;8;
79537;PMS5003;68989;52.032;5.152;2023-08-24T03:19:39;10;10;
79537;PMS5003;68989;52.032;5.152;2023-08-24T03:22:07;10;9;
79537;PMS5003;68989;52.032;5.152;2023-08-24T03:24:33;9;8;
79537;PMS5003;68989;52.032;5.152;2023-08-24T03:27:00;8;8;
79537;PMS5003;68989;52.032;5.152;2023-08-24T03:29:27;7;7;
79537;PMS5003;68989;52.032;5.152;2023-08-24T03:31:54;10;10;
79537;PMS5003;68989;52.032;5.152;2023-08-24T03:34:21;8;8;
79537;PMS5003;68989;52.032;5.152;2023-08-24T03:36:48;9;9;
79537;PMS5003;68989;52.032;5.152;2023-08-24T03:39:15;12;9;
79537;PMS5003;68989;52.032;5.152;2023-08-24T03:41:42;14;11;
79537;PMS5003;68989;52.032;5.152;2023-08-24T03:44:09;9;9;
79537;PMS5003;68989;52.032;5.152;2023-08-24T03:46:36;9;8;
79537;PMS5003;68989;52.032;5.152;2023-08-24T03:49:03;8;7;
79537;PMS5003;68989;52.032;5.152;2023-08-24T03:51:30;9;9;
79537;PMS5003;68989;52.032;5.152;2023-08-24T03:53:57;8;8;
79537;PMS5003;68989;52.032;5.152;2023-08-24T03:56:24;8;8;
79537;PMS5003;68989;52.032;5.152;2023-08-24T03:58:52;7;7;
79537;PMS5003;68989;52.032;5.152;2023-08-24T04:01:19;8;8;
79537;PMS5003;68989;52.032;5.152;2023-08-24T04:03:45;5;5;
79537;PMS5003;68989;52.032;5.152;2023-08-24T04:06:12;6;6;
79537;PMS5003;68989;52.032;5.152;2023-08-24T04:08:39;7;7;
79537;PMS5003;68989;52.032;5.152;2023-08-24T04:11:06;6;6;
79537;PMS5003;68989;52.032;5.152;2023-08-24T04:13:33;6;6;
79537;PMS5003;68989;52.032;5.152;2023-08-24T04:16:00;8;8;
79537;PMS5003;68989;52.032;5.152;2023-08-24T04:18:27;6;6;
79537;PMS5003;68989;52.032;5.152;2023-08-24T04:20:54;6;6;
79537;PMS5003;68989;52.032;5.152;2023-08-24T04:23:23;10;8;
79537;PMS5003;68989;52.032;5.152;2023-08-24T04:25:51;7;6;
79537;PMS5003;68989;52.032;5.152;2023-08-24T04:28:19;6;6;
79537;PMS5003;68989;52.032;5.152;2023-08-24T04:30:50;7;6;
79537;PMS5003;68989;52.032;5.152;2023-08-24T04:33:18;6;6;
79537;PMS5003;68989;52.032;5.152;2023-08-24T04:35:46;6;6;
79537;PMS5003;68989;52.032;5.152;2023-08-24T04:38:14;8;8;
79537;PMS5003;68989;52.032;5.152;2023-08-24T04:40:49;13;10;
79537;PMS5003;68989;52.032;5.152;2023-08-24T04:43:17;9;9;
79537;PMS5003;68989;52.032;5.152;2023-08-24T04:45:45;8;8;
79537;PMS5003;68989;52.032;5.152;2023-08-24T04:48:14;10;10;
79537;PMS5003;68989;52.032;5.152;2023-08-24T04:50:43;13;10;
79537;PMS5003;68989;52.032;5.152;2023-08-24T04:53:12;10;10;
79537;PMS5003;68989;52.032;5.152;2023-08-24T04:55:40;11;10;
79537;PMS5003;68989;52.032;5.152;2023-08-24T04:58:08;8;8;
79537;PMS5003;68989;52.032;5.152;2023-08-24T05:00:35;10;9;
79537;PMS5003;68989;52.032;5.152;2023-08-24T05:03:04;14;11;
79537;PMS5003;68989;52.032;5.152;2023-08-24T05:05:32;11;10;
79537;PMS5003;68989;52.032;5.152;2023-08-24T05:08:01;8;8;
79537;PMS5003;68989;52.032;5.152;2023-08-24T05:10:30;12;11;
79537;PMS5003;68989;52.032;5.152;2023-08-24T05:12:59;13;13;
79537;PMS5003;68989;52.032;5.152;2023-08-24T05:15:26;10;10;
79537;PMS5003;68989;52.032;5.152;2023-08-24T05:17:53;9;9;
79537;PMS5003;68989;52.032;5.152;2023-08-24T05:20:21;12;11;
79537;PMS5003;68989;52.032;5.152;2023-08-24T05:22:49;11;11;
79537;PMS5003;68989;52.032;5.152;2023-08-24T05:25:15;13;12;
79537;PMS5003;68989;52.032;5.152;2023-08-24T05:27:43;10;10;
79537;PMS5003;68989;52.032;5.152;2023-08-24T05:30:11;10;9;
79537;PMS5003;68989;52.032;5.152;2023-08-24T05:32:38;11;10;
79537;PMS5003;68989;52.032;5.152;2023-08-24T05:35:06;12;12;
79537;PMS5003;68989;52.032;5.152;2023-08-24T05:37:34;10;10;
79537;PMS5003;68989;52.032;5.152;2023-08-24T05:40:02;14;11;
79537;PMS5003;68989;52.032;5.152;2023-08-24T05:42:29;11;11;
79537;PMS5003;68989;52.032;5.152;2023-08-24T05:44:57;12;12;
79537;PMS5003;68989;52.032;5.152;2023-08-24T05:47:24;9;9;
79537;PMS5003;68989;52.032;5.152;2023-08-24T05:49:51;13;13;
79537;PMS5003;68989;52.032;5.152;2023-08-24T05:52:18;18;18;
79537;PMS5003;68989;52.032;5.152;2023-08-24T05:54:45;15;15;
79537;PMS5003;68989;52.032;5.152;2023-08-24T05:57:13;15;15;
79537;PMS5003;68989;52.032;5.152;2023-08-24T05:59:40;10;10;
79537;PMS5003;68989;52.032;5.152;2023-08-24T06:02:07;12;12;
79537;PMS5003;68989;52.032;5.152;2023-08-24T06:04:34;14;12;
79537;PMS5003;68989;52.032;5.152;2023-08-24T06:07:01;12;12;
79537;PMS5003;68989;52.032;5.152;2023-08-24T06:09:28;14;13;
79537;PMS5003;68989;52.032;5.152;2023-08-24T06:11:55;20;18;
79537;PMS5003;68989;52.032;5.152;2023-08-24T06:14:22;18;17;
79537;PMS5003;68989;52.032;5.152;2023-08-24T06:16:49;15;12;
79537;PMS5003;68989;52.032;5.152;2023-08-24T06:19:16;19;17;
79537;PMS5003;68989;52.032;5.152;2023-08-24T06:21:43;17;15;
79537;PMS5003;68989;52.032;5.152;2023-08-24T06:24:11;16;15;
79537;PMS5003;68989;52.032;5.152;2023-08-24T06:26:38;16;15;
79537;PMS5003;68989;52.032;5.152;2023-08-24T06:29:05;15;13;
79537;PMS5003;68989;52.032;5.152;2023-08-24T06:31:32;11;11;
79537;PMS5003;68989;52.032;5.152;2023-08-24T06:34:00;16;16;
79537;PMS5003;68989;52.032;5.152;2023-08-24T06:36:27;21;21;
79537;PMS5003;68989;52.032;5.152;2023-08-24T06:38:54;17;17;
79537;PMS5003;68989;52.032;5.152;2023-08-24T06:41:21;17;17;
79537;PMS5003;68989;52.032;5.152;2023-08-24T06:43:48;20;20;
79537;PMS5003;68989;52.032;5.152;2023-08-24T06:46:16;19;17;
79537;PMS5003;68989;52.032;5.152;2023-08-24T06:48:42;19;19;
79537;PMS5003;68989;52.032;5.152;2023-08-24T06:51:10;20;19;
79537;PMS5003;68989;52.032;5.152;2023-08-24T06:53:37;22;22;
79537;PMS5003;68989;52.032;5.152;2023-08-24T06:56:04;20;20;
79537;PMS5003;68989;52.032;5.152;2023-08-24T06:58:31;17;17;
79537;PMS5003;68989;52.032;5.152;2023-08-24T07:00:58;24;24;
79537;PMS5003;68989;52.032;5.152;2023-08-24T07:03:25;19;19;
79537;PMS5003;68989;52.032;5.152;2023-08-24T07:05:52;17;17;
79537;PMS5003;68989;52.032;5.152;2023-08-24T07:08:19;14;14;
79537;PMS5003;68989;52.032;5.152;2023-08-24T07:10:47;15;13;
79537;PMS5003;68989;52.032;5.152;2023-08-24T07:13:14;15;15;
79537;PMS5003;68989;52.032;5.152;2023-08-24T07:15:40;17;15;
79537;PMS5003;68989;52.032;5.152;2023-08-24T07:18:09;19;17;
79537;PMS5003;68989;52.032;5.152;2023-08-24T07:20:36;16;14;
79537;PMS5003;68989;52.032;5.152;2023-08-24T07:23:04;23;22;
79537;PMS5003;68989;52.032;5.152;2023-08-24T07:25:31;24;24;
79537;PMS5003;68989;52.032;5.152;2023-08-24T07:28:00;16;16;
79537;PMS5003;68989;52.032;5.152;2023-08-24T07:30:27;16;16;
79537;PMS5003;68989;52.032;5.152;2023-08-24T07:32:53;18;17;
79537;PMS5003;68989;52.032;5.152;2023-08-24T07:35:21;16;16;
79537;PMS5003;68989;52.032;5.152;2023-08-24T07:37:48;16;16;
79537;PMS5003;68989;52.032;5.152;2023-08-24T07:40:16;14;13;
79537;PMS5003;68989;52.032;5.152;2023-08-24T07:42:43;14;14;
79537;PMS5003;68989;52.032;5.152;2023-08-24T07:45:10;16;15;
79537;PMS5003;68989;52.032;5.152;2023-08-24T07:47:38;22;22;
79537;PMS5003;68989;52.032;5.152;2023-08-24T07:50:06;11;11;
79537;PMS5003;68989;52.032;5.152;2023-08-24T07:52:34;13;11;
79537;PMS5003;68989;52.032;5.152;2023-08-24T07:55:03;15;14;
79537;PMS5003;68989;52.032;5.152;2023-08-24T07:57:30;16;16;
79537;PMS5003;68989;52.032;5.152;2023-08-24T07:59:58;12;12;
79537;PMS5003;68989;52.032;5.152;2023-08-24T08:02:25;13;13;
79537;PMS5003;68989;52.032;5.152;2023-08-24T08:04:55;18;16;
79537;PMS5003;68989;52.032;5.152;2023-08-24T08:07:23;13;13;
79537;PMS5003;68989;52.032;5.152;2023-08-24T08:09:50;16;16;
79537;PMS5003;68989;52.032;5.152;2023-08-24T08:12:17;15;13;
79537;PMS5003;68989;52.032;5.152;2023-08-24T08:14:45;17;17;
79537;PMS5003;68989;52.032;5.152;2023-08-24T08:17:12;9;8;
79537;PMS5003;68989;52.032;5.152;2023-08-24T08:19:38;12;12;
79537;PMS5003;68989;52.032;5.152;2023-08-24T08:22:05;12;11;
79537;PMS5003;68989;52.032;5.152;2023-08-24T08:24:32;10;10;
79537;PMS5003;68989;52.032;5.152;2023-08-24T08:26:59;17;16;
79537;PMS5003;68989;52.032;5.152;2023-08-24T08:29:26;19;19;
79537;PMS5003;68989;52.032;5.152;2023-08-24T08:31:53;23;22;
79537;PMS5003;68989;52.032;5.152;2023-08-24T08:34:20;19;17;
79537;PMS5003;68989;52.032;5.152;2023-08-24T08:36:47;17;15;
79537;PMS5003;68989;52.032;5.152;2023-08-24T08:39:14;18;18;
79537;PMS5003;68989;52.032;5.152;2023-08-24T08:41:42;16;16;
79537;PMS5003;68989;52.032;5.152;2023-08-24T08:44:12;20;19;
79537;PMS5003;68989;52.032;5.152;2023-08-24T08:46:42;18;18;
79537;PMS5003;68989;52.032;5.152;2023-08-24T08:49:09;26;23;
79537;PMS5003;68989;52.032;5.152;2023-08-24T08:51:37;21;19;
79537;PMS5003;68989;52.032;5.152;2023-08-24T08:54:05;20;20;
79537;PMS5003;68989;52.032;5.152;2023-08-24T08:56:32;24;24;
79537;PMS5003;68989;52.032;5.152;2023-08-24T08:58:59;21;18;
79537;PMS5003;68989;52.032;5.152;2023-08-24T09:01:28;20;18;
79537;PMS5003;68989;52.032;5.152;2023-08-24T09:03:55;20;18;
79537;PMS5003;68989;52.032;5.152;2023-08-24T09:06:23;28;28;
79537;PMS5003;68989;52.032;5.152;2023-08-24T09:08:50;26;22;
79537;PMS5003;68989;52.032;5.152;2023-08-24T09:11:19;28;25;
79537;PMS5003;68989;52.032;5.152;2023-08-24T09:13:46;26;26;
79537;PMS5003;68989;52.032;5.152;2023-08-24T09:16:13;24;22;
79537;PMS5003;68989;52.032;5.152;2023-08-24T09:18:41;23;22;
79537;PMS5003;68989;52.032;5.152;2023-08-24T09:21:13;18;17;
79537;PMS5003;68989;52.032;5.152;2023-08-24T09:23:43;20;20;
79537;PMS5003;68989;52.032;5.152;2023-08-24T09:26:11;20;20;
79537;PMS5003;68989;52.032;5.152;2023-08-24T09:28:38;27;24;
79537;PMS5003;68989;52.032;5.152;2023-08-24T09:31:08;29;29;
79537;PMS5003;68989;52.032;5.152;2023-08-24T09:33:37;27;23;
79537;PMS5003;68989;52.032;5.152;2023-08-24T09:36:05;25;24;
79537;PMS5003;68989;52.032;5.152;2023-08-24T09:38:32;23;23;
79537;PMS5003;68989;52.032;5.152;2023-08-24T09:40:59;24;22;
79537;PMS5003;68989;52.032;5.152;2023-08-24T09:43:30;26;25;
79537;PMS5003;68989;52.032;5.152;2023-08-24T09:45:57;25;25;
79537;PMS5003;68989;52.032;5.152;2023-08-24T09:48:24;24;22;
79537;PMS5003;68989;52.032;5.152;2023-08-24T09:50:51;25;25;
79537;PMS5003;68989;52.032;5.152;2023-08-24T09:53:19;25;25;
79537;PMS5003;68989;52.032;5.152;2023-08-24T09:55:49;36;33;
79537;PMS5003;68989;52.032;5.152;2023-08-24T09:58:21;31;30;
79537;PMS5003;68989;52.032;5.152;2023-08-24T10:00:49;24;24;
79537;PMS5003;68989;52.032;5.152;2023-08-24T10:03:18;29;26;
79537;PMS5003;68989;52.032;5.152;2023-08-24T10:05:49;29;28;
79537;PMS5003;68989;52.032;5.152;2023-08-24T10:08:18;22;22;
79537;PMS5003;68989;52.032;5.152;2023-08-24T10:10:47;23;22;
79537;PMS5003;68989;52.032;5.152;2023-08-24T10:13:23;21;21;
79537;PMS5003;68989;52.032;5.152;2023-08-24T10:15:55;26;23;
79537;PMS5003;68989;52.032;5.152;2023-08-24T10:18:23;24;24;
79537;PMS5003;68989;52.032;5.152;2023-08-24T10:20:52;23;22;
79537;PMS5003;68989;52.032;5.152;2023-08-24T10:23:19;19;18;
79537;PMS5003;68989;52.032;5.152;2023-08-24T10:25:48;27;26;
79537;PMS5003;68989;52.032;5.152;2023-08-24T10:28:18;27;24;
79537;PMS5003;68989;52.032;5.152;2023-08-24T10:30:47;19;19;
79537;PMS5003;68989;52.032;5.152;2023-08-24T10:33:14;22;22;
79537;PMS5003;68989;52.032;5.152;2023-08-24T10:35:43;23;21;
79537;PMS5003;68989;52.032;5.152;2023-08-24T10:38:20;25;22;
79537;PMS5003;68989;52.032;5.152;2023-08-24T10:40:50;26;26;
79537;PMS5003;68989;52.032;5.152;2023-08-24T10:43:18;19;18;
79537;PMS5003;68989;52.032;5.152;2023-08-24T10:46:00;26;26;
79537;PMS5003;68989;52.032;5.152;2023-08-24T10:48:28;23;23;
79537;PMS5003;68989;52.032;5.152;2023-08-24T10:51:28;30;30;
79537;PMS5003;68989;52.032;5.152;2023-08-24T10:53:56;25;24;
79537;PMS5003;68989;52.032;5.152;2023-08-24T10:56:29;24;24;
79537;PMS5003;68989;52.032;5.152;2023-08-24T10:59:10;26;26;
79537;PMS5003;68989;52.032;5.152;2023-08-24T11:01:39;26;26;
79537;PMS5003;68989;52.032;5.152;2023-08-24T11:04:08;31;30;
79537;PMS5003;68989;52.032;5.152;2023-08-24T11:06:50;33;32;
79537;PMS5003;68989;52.032;5.152;2023-08-24T11:09:19;35;32;
79537;PMS5003;68989;52.032;5.152;2023-08-24T11:12:02;33;33;
79537;PMS5003;68989;52.032;5.152;2023-08-24T11:14:30;32;32;
79537;PMS5003;68989;52.032;5.152;2023-08-24T11:16:58;31;30;
79537;PMS5003;68989;52.032;5.152;2023-08-24T11:19:26;33;30;
79537;PMS5003;68989;52.032;5.152;2023-08-24T11:21:54;30;30;
79537;PMS5003;68989;52.032;5.152;2023-08-24T11:24:21;32;31;
79537;PMS5003;68989;52.032;5.152;2023-08-24T11:26:49;36;35;
79537;PMS5003;68989;52.032;5.152;2023-08-24T11:29:15;34;32;
79537;PMS5003;68989;52.032;5.152;2023-08-24T11:31:44;43;39;
79537;PMS5003;68989;52.032;5.152;2023-08-24T11:34:14;29;29;
79537;PMS5003;68989;52.032;5.152;2023-08-24T11:36:42;33;31;
79537;PMS5003;68989;52.032;5.152;2023-08-24T11:39:15;36;34;
79537;PMS5003;68989;52.032;5.152;2023-08-24T11:41:43;36;34;
79537;PMS5003;68989;52.032;5.152;2023-08-24T11:44:10;31;31;
79537;PMS5003;68989;52.032;5.152;2023-08-24T11:46:37;31;27;
79537;PMS5003;68989;52.032;5.152;2023-08-24T11:49:04;30;30;
79537;PMS5003;68989;52.032;5.152;2023-08-24T11:51:32;27;27;
79537;PMS5003;68989;52.032;5.152;2023-08-24T11:53:59;29;29;
79537;PMS5003;68989;52.032;5.152;2023-08-24T11:56:27;28;28;
79537;PMS5003;68989;52.032;5.152;2023-08-24T11:58:54;32;32;
79537;PMS5003;68989;52.032;5.152;2023-08-24T12:01:21;33;30;
79537;PMS5003;68989;52.032;5.152;2023-08-24T12:03:49;35;32;
79537;PMS5003;68989;52.032;5.152;2023-08-24T12:06:16;35;33;
79537;PMS5003;68989;52.032;5.152;2023-08-24T12:08:45;35;33;
79537;PMS5003;68989;52.032;5.152;2023-08-24T12:11:14;33;31;
79537;PMS5003;68989;52.032;5.152;2023-08-24T12:13:43;24;24;
79537;PMS5003;68989;52.032;5.152;2023-08-24T12:16:12;29;29;
79537;PMS5003;68989;52.032;5.152;2023-08-24T12:18:50;30;28;
79537;PMS5003;68989;52.032;5.152;2023-08-24T12:21:18;31;30;
79537;PMS5003;68989;52.032;5.152;2023-08-24T12:24:02;31;28;
79537;PMS5003;68989;52.032;5.152;2023-08-24T12:26:30;29;29;
79537;PMS5003;68989;52.032;5.152;2023-08-24T12:29:00;34;32;
79537;PMS5003;68989;52.032;5.152;2023-08-24T12:31:28;30;30;
79537;PMS5003;68989;52.032;5.152;2023-08-24T12:33:59;32;32;
79537;PMS5003;68989;52.032;5.152;2023-08-24T12:36:28;40;40;
79537;PMS5003;68989;52.032;5.152;2023-08-24T12:38:56;34;33;
79537;PMS5003;68989;52.032;5.152;2023-08-24T12:41:24;31;31;
79537;PMS5003;68989;52.032;5.152;2023-08-24T12:43:51;27;27;
79537;PMS5003;68989;52.032;5.152;2023-08-24T12:46:18;40;39;
79537;PMS5003;68989;52.032;5.152;2023-08-24T12:48:45;34;34;
79537;PMS5003;68989;52.032;5.152;2023-08-24T12:51:12;37;37;
79537;PMS5003;68989;52.032;5.152;2023-08-24T12:53:39;35;35;
79537;PMS5003;68989;52.032;5.152;2023-08-24T12:56:07;38;33;
79537;PMS5003;68989;52.032;5.152;2023-08-24T12:58:34;33;33;
79537;PMS5003;68989;52.032;5.152;2023-08-24T13:01:01;32;30;
79537;PMS5003;68989;52.032;5.152;2023-08-24T13:03:28;32;31;
79537;PMS5003;68989;52.032;5.152;2023-08-24T13:05:55;32;30;
79537;PMS5003;68989;52.032;5.152;2023-08-24T13:08:22;21;21;
79537;PMS5003;68989;52.032;5.152;2023-08-24T13:10:49;25;24;
79537;PMS5003;68989;52.032;5.152;2023-08-24T13:13:16;30;26;
79537;PMS5003;68989;52.032;5.152;2023-08-24T13:15:44;23;23;
79537;PMS5003;68989;52.032;5.152;2023-08-24T13:18:11;21;21;
79537;PMS5003;68989;52.032;5.152;2023-08-24T13:20:38;23;23;
79537;PMS5003;68989;52.032;5.152;2023-08-24T13:23:05;26;25;
79537;PMS5003;68989;52.032;5.152;2023-08-24T13:25:32;32;27;
79537;PMS5003;68989;52.032;5.152;2023-08-24T13:28:00;27;25;
79537;PMS5003;68989;52.032;5.152;2023-08-24T13:30:27;20;20;
79537;PMS5003;68989;52.032;5.152;2023-08-24T13:32:53;21;21;
79537;PMS5003;68989;52.032;5.152;2023-08-24T13:35:21;20;19;
79537;PMS5003;68989;52.032;5.152;2023-08-24T13:37:47;28;27;
79537;PMS5003;68989;52.032;5.152;2023-08-24T13:40:14;27;26;
79537;PMS5003;68989;52.032;5.152;2023-08-24T13:42:42;24;23;
79537;PMS5003;68989;52.032;5.152;2023-08-24T13:45:09;23;23;
79537;PMS5003;68989;52.032;5.152;2023-08-24T13:47:36;21;21;
79537;PMS5003;68989;52.032;5.152;2023-08-24T13:50:04;22;20;
79537;PMS5003;68989;52.032;5.152;2023-08-24T13:52:31;21;21;
79537;PMS5003;68989;52.032;5.152;2023-08-24T13:54:59;22;22;
79537;PMS5003;68989;52.032;5.152;2023-08-24T13:57:26;28;26;
79537;PMS5003;68989;52.032;5.152;2023-08-24T13:59:53;19;19;
79537;PMS5003;68989;52.032;5.152;2023-08-24T14:02:20;21;21;
79537;PMS5003;68989;52.032;5.152;2023-08-24T14:04:47;30;27;
79537;PMS5003;68989;52.032;5.152;2023-08-24T14:07:14;19;18;
79537;PMS5003;68989;52.032;5.152;2023-08-24T14:09:42;18;18;
79537;PMS5003;68989;52.032;5.152;2023-08-24T14:12:09;22;20;
79537;PMS5003;68989;52.032;5.152;2023-08-24T14:14:37;18;18;
79537;PMS5003;68989;52.032;5.152;2023-08-24T14:17:04;22;21;
79537;PMS5003;68989;52.032;5.152;2023-08-24T14:19:31;18;18;
79537;PMS5003;68989;52.032;5.152;2023-08-24T14:21:59;23;23;
79537;PMS5003;68989;52.032;5.152;2023-08-24T14:24:26;24;22;
79537;PMS5003;68989;52.032;5.152;2023-08-24T14:26:53;23;23;
79537;PMS5003;68989;52.032;5.152;2023-08-24T14:29:20;31;30;
79537;PMS5003;68989;52.032;5.152;2023-08-24T14:31:47;20;20;
79537;PMS5003;68989;52.032;5.152;2023-08-24T14:34:14;27;27;
79537;PMS5003;68989;52.032;5.152;2023-08-24T14:36:41;26;25;
79537;PMS5003;68989;52.032;5.152;2023-08-24T14:39:09;29;29;
79537;PMS5003;68989;52.032;5.152;2023-08-24T14:41:35;24;23;
79537;PMS5003;68989;52.032;5.152;2023-08-24T14:44:02;26;25;
79537;PMS5003;68989;52.032;5.152;2023-08-24T14:46:29;23;22;
79537;PMS5003;68989;52.032;5.152;2023-08-24T14:48:56;26;25;
79537;PMS5003;68989;52.032;5.152;2023-08-24T14:51:23;22;19;
79537;PMS5003;68989;52.032;5.152;2023-08-24T14:53:50;23;23;
79537;PMS5003;68989;52.032;5.152;2023-08-24T14:56:17;20;20;
79537;PMS5003;68989;52.032;5.152;2023-08-24T14:58:45;18;18;
79537;PMS5003;68989;52.032;5.152;2023-08-24T15:01:12;20;20;
79537;PMS5003;68989;52.032;5.152;2023-08-24T15:03:40;18;18;
79537;PMS5003;68989;52.032;5.152;2023-08-24T15:06:07;18;18;
79537;PMS5003;68989;52.032;5.152;2023-08-24T15:08:34;17;16;
79537;PMS5003;68989;52.032;5.152;2023-08-24T15:11:02;20;17;
79537;PMS5003;68989;52.032;5.152;2023-08-24T15:13:29;17;17;
79537;PMS5003;68989;52.032;5.152;2023-08-24T15:15:57;20;20;
79537;PMS5003;68989;52.032;5.152;2023-08-24T15:18:25;17;16;
79537;PMS5003;68989;52.032;5.152;2023-08-24T15:20:52;20;19;
79537;PMS5003;68989;52.032;5.152;2023-08-24T15:23:21;16;16;
79537;PMS5003;68989;52.032;5.152;2023-08-24T15:25:50;19;19;
79537;PMS5003;68989;52.032;5.152;2023-08-24T15:28:18;19;19;
79537;PMS5003;68989;52.032;5.152;2023-08-24T15:30:46;22;18;
79537;PMS5003;68989;52.032;5.152;2023-08-24T15:33:13;19;17;
79537;PMS5003;68989;52.032;5.152;2023-08-24T15:35:41;17;17;
79537;PMS5003;68989;52.032;5.152;2023-08-24T15:38:09;17;17;
79537;PMS5003;68989;52.032;5.152;2023-08-24T15:40:37;17;17;
79537;PMS5003;68989;52.032;5.152;2023-08-24T15:43:05;16;15;
79537;PMS5003;68989;52.032;5.152;2023-08-24T15:45:32;19;18;
79537;PMS5003;68989;52.032;5.152;2023-08-24T15:48:00;14;14;
79537;PMS5003;68989;52.032;5.152;2023-08-24T15:50:27;17;17;
79537;PMS5003;68989;52.032;5.152;2023-08-24T15:52:55;18;15;
79537;PMS5003;68989;52.032;5.152;2023-08-24T15:55:22;13;13;
79537;PMS5003;68989;52.032;5.152;2023-08-24T15:57:50;14;14;
79537;PMS5003;68989;52.032;5.152;2023-08-24T16:00:17;15;15;
79537;PMS5003;68989;52.032;5.152;2023-08-24T16:02:44;18;17;
79537;PMS5003;68989;52.032;5.152;2023-08-24T16:05:11;15;13;
79537;PMS5003;68989;52.032;5.152;2023-08-24T16:07:38;11;11;
79537;PMS5003;68989;52.032;5.152;2023-08-24T16:10:06;12;12;
79537;PMS5003;68989;52.032;5.152;2023-08-24T16:12:33;12;12;
79537;PMS5003;68989;52.032;5.152;2023-08-24T16:15:01;9;9;
79537;PMS5003;68989;52.032;5.152;2023-08-24T16:17:28;13;11;
79537;PMS5003;68989;52.032;5.152;2023-08-24T16:19:56;8;8;
79537;PMS5003;68989;52.032;5.152;2023-08-24T16:22:22;9;9;
79537;PMS5003;68989;52.032;5.152;2023-08-24T16:24:49;9;9;
79537;PMS5003;68989;52.032;5.152;2023-08-24T16:27:16;8;8;
79537;PMS5003;68989;52.032;5.152;2023-08-24T16:29:43;9;9;
79537;PMS5003;68989;52.032;5.152;2023-08-24T16:32:10;11;11;
79537;PMS5003;68989;52.032;5.152;2023-08-24T16:34:36;8;8;
79537;PMS5003;68989;52.032;5.152;2023-08-24T16:37:04;8;8;
79537;PMS5003;68989;52.032;5.152;2023-08-24T16:39:30;12;10;
79537;PMS5003;68989;52.032;5.152;2023-08-24T16:41:57;12;9;
79537;PMS5003;68989;52.032;5.152;2023-08-24T16:44:25;11;11;
79537;PMS5003;68989;52.032;5.152;2023-08-24T16:46:51;8;8;
79537;PMS5003;68989;52.032;5.152;2023-08-24T16:49:18;11;11;
79537;PMS5003;68989;52.032;5.152;2023-08-24T16:51:45;10;10;
79537;PMS5003;68989;52.032;5.152;2023-08-24T16:54:11;8;8;
79537;PMS5003;68989;52.032;5.152;2023-08-24T16:56:39;11;9;
79537;PMS5003;68989;52.032;5.152;2023-08-24T16:59:06;12;10;
79537;PMS5003;68989;52.032;5.152;2023-08-24T17:01:33;11;9;
79537;PMS5003;68989;52.032;5.152;2023-08-24T17:04:01;8;8;
79537;PMS5003;68989;52.032;5.152;2023-08-24T17:06:28;9;9;
79537;PMS5003;68989;52.032;5.152;2023-08-24T17:08:55;9;9;
79537;PMS5003;68989;52.032;5.152;2023-08-24T17:11:22;9;9;
79537;PMS5003;68989;52.032;5.152;2023-08-24T17:13:49;9;9;
79537;PMS5003;68989;52.032;5.152;2023-08-24T17:16:17;10;9;
79537;PMS5003;68989;52.032;5.152;2023-08-24T17:18:44;9;9;